Time;durP1;ratioP1;P1;durP2;ratioP2;P2;SDS_P1;SDS_P2;PMS_P1;PMS_P2;Temp;Humidity;BMP_temperature;BMP_pressure;BME280_temperature;BME280_humidity;BME280_pressure;Samples;Min_cycle;Max_cycle;Signal;HPM_P1;HPM_P2
2023/11/30 00:01:53;;;;;;;2.60;1.13;;;;;;;4.67;83.92;99977.25;5056858;28;20048;-67
2023/11/30 00:04:19;;;;;;;2.00;0.52;;;;;;;4.64;82.56;99972.31;5060169;28;20032;-67
2023/11/30 00:06:44;;;;;;;3.72;1.05;;;;;;;4.66;84.31;99970.44;5061991;28;20116;-67
2023/11/30 00:09:10;;;;;;;3.33;0.68;;;;;;;4.65;84.97;99967.03;5065331;28;20454;-67
2023/11/30 00:11:35;;;;;;;2.38;1.10;;;;;;;4.64;84.45;99972.31;5060919;28;20028;-68
2023/11/30 00:14:01;;;;;;;1.33;0.70;;;;;;;4.63;84.31;99966.34;5057867;28;20515;-67
2023/11/30 00:16:27;;;;;;;3.58;0.70;;;;;;;4.67;82.14;99966.94;5061953;28;20039;-68
2023/11/30 00:18:52;;;;;;;1.80;0.32;;;;;;;4.85;78.61;99957.72;5066803;28;20393;-67
2023/11/30 00:21:18;;;;;;;1.08;0.40;;;;;;;4.99;77.84;99954.06;5065102;28;20091;-67
2023/11/30 00:23:44;;;;;;;0.70;0.30;;;;;;;5.03;77.21;99957.22;5064286;28;20040;-67
2023/11/30 00:26:09;;;;;;;1.20;0.30;;;;;;;5.05;78.15;99951.00;5058640;28;20037;-68
2023/11/30 00:28:35;;;;;;;1.63;0.40;;;;;;;5.01;77.53;99959.94;5064028;28;20032;-68
2023/11/30 00:31:09;;;;;;;1.98;0.47;;;;;;;4.91;79.04;99954.66;5069002;28;20331;-67
2023/11/30 00:33:34;;;;;;;1.75;0.55;;;;;;;4.88;78.10;99956.66;5067565;28;20037;-67
2023/11/30 00:36:00;;;;;;;1.05;0.40;;;;;;;4.89;80.14;99946.22;5067750;28;20024;-68
2023/11/30 00:38:25;;;;;;;0.98;0.35;;;;;;;4.92;77.97;99951.16;5058667;28;20071;-69
2023/11/30 00:40:51;;;;;;;0.40;0.20;;;;;;;4.99;77.16;99948.91;5061944;28;20070;-67
2023/11/30 00:43:17;;;;;;;0.98;0.20;;;;;;;5.10;78.41;99940.31;5067470;28;20493;-68
2023/11/30 00:45:43;;;;;;;0.73;0.30;;;;;;;5.16;75.79;99934.66;5067445;28;20047;-67
2023/11/30 00:48:08;;;;;;;1.20;0.20;;;;;;;5.24;76.66;99934.84;5059967;28;20029;-67
2023/11/30 00:50:34;;;;;;;1.00;0.50;;;;;;;5.26;76.31;99936.38;5062416;28;20043;-68
2023/11/30 00:52:59;;;;;;;0.80;0.30;;;;;;;5.26;77.44;99932.97;5061684;28;20493;-67
2023/11/30 00:55:25;;;;;;;3.92;0.70;;;;;;;5.17;78.89;99933.72;5064953;28;20130;-68
2023/11/30 00:57:50;;;;;;;1.30;0.45;;;;;;;5.06;81.11;99936.34;5060927;28;20111;-68
2023/11/30 01:00:16;;;;;;;2.72;0.40;;;;;;;4.94;81.65;99927.78;5063396;28;20478;-69
2023/11/30 01:02:41;;;;;;;1.85;0.60;;;;;;;4.84;84.04;99942.38;5067382;28;20123;-71
2023/11/30 01:05:07;;;;;;;1.50;0.38;;;;;;;4.71;85.63;99939.94;5063163;28;20097;-69
2023/11/30 01:07:33;;;;;;;1.67;0.60;;;;;;;4.70;86.47;99935.72;5050606;28;20033;-68
2023/11/30 01:09:59;;;;;;;1.65;0.70;;;;;;;4.68;86.61;99936.78;5065939;28;20082;-68
2023/11/30 01:12:26;;;;;;;1.90;0.88;;;;;;;4.65;86.90;99935.25;5068358;28;20477;-68
2023/11/30 01:14:52;;;;;;;2.25;0.75;;;;;;;4.65;87.83;99937.84;5065888;28;20064;-68
2023/11/30 01:17:18;;;;;;;2.85;0.73;;;;;;;4.59;88.81;99944.28;5064925;28;20032;-68
2023/11/30 01:19:43;;;;;;;1.58;0.60;;;;;;;4.61;88.85;99931.28;5067147;28;20037;-67
2023/11/30 01:22:09;;;;;;;1.02;0.60;;;;;;;4.63;89.05;99934.56;5066672;28;20040;-67
2023/11/30 01:24:34;;;;;;;2.42;0.40;;;;;;;4.65;88.90;99933.50;5065709;28;20089;-67
2023/11/30 01:27:00;;;;;;;1.75;0.70;;;;;;;4.69;86.37;99926.34;5065115;28;20032;-68
2023/11/30 01:29:25;;;;;;;2.38;0.52;;;;;;;4.91;82.40;99931.44;5063261;28;20044;-67
2023/11/30 01:31:50;;;;;;;1.67;0.38;;;;;;;5.04;81.03;99927.88;5067306;28;20039;-68
2023/11/30 01:34:16;;;;;;;2.25;0.47;;;;;;;5.17;79.56;99931.97;5062430;28;20032;-68
2023/11/30 01:36:41;;;;;;;0.65;0.20;;;;;;;5.19;77.06;99926.66;5062767;28;20084;-68
2023/11/30 01:39:07;;;;;;;1.75;0.30;;;;;;;5.21;78.03;99919.59;5061905;28;20028;-69
2023/11/30 01:41:36;;;;;;;0.60;0.20;;;;;;;5.19;79.46;99918.94;5064087;28;20051;-68
2023/11/30 01:44:02;;;;;;;0.57;0.20;;;;;;;5.25;77.11;99908.06;5059414;28;20029;-68
2023/11/30 01:46:29;;;;;;;1.20;0.25;;;;;;;5.27;76.72;99906.19;5063823;28;20064;-68
2023/11/30 01:48:55;;;;;;;1.00;0.30;;;;;;;5.25;77.61;99895.16;5065207;28;20059;-68
2023/11/30 01:51:21;;;;;;;1.60;0.40;;;;;;;5.26;75.98;99889.06;5065178;28;20028;-68
2023/11/30 01:53:46;;;;;;;0.50;0.20;;;;;;;5.29;76.48;99892.19;5067831;28;20040;-69
2023/11/30 01:56:13;;;;;;;2.30;0.55;;;;;;;5.25;77.79;99890.00;5067692;28;20036;-67
2023/11/30 01:58:40;;;;;;;1.00;0.35;;;;;;;5.19;77.76;99880.19;5064308;28;20040;-68
2023/11/30 02:01:06;;;;;;;0.77;0.35;;;;;;;5.20;76.55;99866.31;5066664;28;20378;-68
2023/11/30 02:03:32;;;;;;;1.52;0.30;;;;;;;5.21;77.30;99865.34;5064826;28;20059;-68
2023/11/30 02:05:57;;;;;;;0.63;0.25;;;;;;;5.24;77.65;99855.59;5061511;28;20768;-68
2023/11/30 02:08:23;;;;;;;0.77;0.30;;;;;;;5.26;78.08;99850.31;5062227;28;20028;-68
2023/11/30 02:10:49;;;;;;;1.55;0.25;;;;;;;5.25;75.87;99844.31;5067143;28;20119;-68
2023/11/30 02:13:14;;;;;;;0.77;0.30;;;;;;;5.28;75.22;99838.09;5062866;28;20040;-67
2023/11/30 02:15:40;;;;;;;2.83;0.30;;;;;;;5.31;77.19;99840.41;5065459;28;20382;-68
2023/11/30 02:18:05;;;;;;;1.67;0.45;;;;;;;5.32;79.20;99839.47;5066357;28;20115;-68
2023/11/30 02:20:31;;;;;;;0.90;0.30;;;;;;;5.22;80.61;99836.00;5062956;28;20044;-68
2023/11/30 02:22:56;;;;;;;2.08;0.40;;;;;;;5.11;81.08;99841.25;5058228;28;20020;-68
2023/11/30 02:25:22;;;;;;;1.10;0.35;;;;;;;5.07;82.04;99839.84;5061025;28;20500;-68
2023/11/30 02:27:47;;;;;;;1.20;0.30;;;;;;;5.11;82.32;99836.09;5065478;28;20507;-68
2023/11/30 02:30:13;;;;;;;1.25;0.40;;;;;;;5.12;82.07;99829.97;5059062;28;20075;-68
2023/11/30 02:32:38;;;;;;;4.15;0.50;;;;;;;5.13;80.25;99818.69;5065721;28;20550;-68
2023/11/30 02:35:04;;;;;;;0.75;0.30;;;;;;;5.17;78.97;99823.50;5056917;28;20036;-68
2023/11/30 02:37:30;;;;;;;0.70;0.30;;;;;;;5.20;78.33;99823.22;5060863;28;20048;-69
2023/11/30 02:39:55;;;;;;;1.52;0.30;;;;;;;5.20;77.81;99819.84;5062816;28;20469;-67
2023/11/30 02:42:21;;;;;;;0.77;0.20;;;;;;;5.20;77.96;99810.31;5058638;28;20041;-68
2023/11/30 02:44:46;;;;;;;1.10;0.20;;;;;;;5.19;78.10;99805.28;5061559;28;20044;-67
2023/11/30 02:47:12;;;;;;;1.50;0.50;;;;;;;5.17;77.96;99807.19;5059807;28;20086;-68
2023/11/30 02:49:38;;;;;;;0.52;0.20;;;;;;;5.14;76.81;99800.50;5062743;28;20111;-68
2023/11/30 02:52:04;;;;;;;1.55;0.20;;;;;;;5.14;76.85;99792.75;5064886;28;20115;-69
2023/11/30 02:54:29;;;;;;;0.90;0.40;;;;;;;5.15;76.48;99796.16;5062955;28;20129;-68
2023/11/30 02:56:55;;;;;;;0.80;0.40;;;;;;;5.12;77.38;99794.66;5063146;28;20040;-68
2023/11/30 02:59:20;;;;;;;1.05;0.30;;;;;;;5.13;77.86;99783.38;5059049;28;20032;-68
2023/11/30 03:01:47;;;;;;;1.33;0.30;;;;;;;5.13;77.61;99783.38;5060069;28;20035;-68
2023/11/30 03:04:12;;;;;;;1.65;0.30;;;;;;;5.17;77.08;99782.19;5042867;28;20033;-68
2023/11/30 03:06:41;;;;;;;1.20;0.32;;;;;;;5.21;78.28;99783.53;5060829;28;20056;-67
2023/11/30 03:09:08;;;;;;;1.17;0.40;;;;;;;5.24;80.37;99777.28;5065820;28;20044;-67
2023/11/30 03:11:33;;;;;;;1.50;0.60;;;;;;;5.20;80.43;99778.53;5063312;28;20028;-68
2023/11/30 03:13:59;;;;;;;1.35;0.40;;;;;;;5.28;81.08;99781.25;5068465;28;20493;-68
2023/11/30 03:16:26;;;;;;;3.78;0.40;;;;;;;5.30;78.64;99771.63;5067933;28;20051;-68
2023/11/30 03:18:51;;;;;;;1.95;0.30;;;;;;;5.32;78.18;99772.31;5066083;28;20037;-68
2023/11/30 03:21:18;;;;;;;1.35;0.40;;;;;;;5.31;79.06;99770.69;5062898;28;20036;-69
2023/11/30 03:23:43;;;;;;;1.55;0.40;;;;;;;5.30;78.73;99779.38;5067743;28;20032;-69
2023/11/30 03:26:08;;;;;;;1.30;0.30;;;;;;;5.31;80.04;99789.56;5067161;28;20028;-68
2023/11/30 03:28:34;;;;;;;10.43;1.30;;;;;;;5.27;81.35;99789.97;5064093;28;20094;-69
2023/11/30 03:31:00;;;;;;;3.95;0.50;;;;;;;5.14;81.58;99784.19;5066324;28;20489;-68
2023/11/30 03:33:25;;;;;;;1.20;0.50;;;;;;;5.00;82.23;99788.72;5059431;28;20490;-68
2023/11/30 03:35:51;;;;;;;2.28;0.45;;;;;;;4.92;82.85;99795.44;5057292;28;23211;-68
2023/11/30 03:38:17;;;;;;;9.68;1.10;;;;;;;4.82;83.57;99784.22;5068711;28;20063;-68
2023/11/30 03:40:43;;;;;;;2.33;0.93;;;;;;;4.66;84.62;99779.50;5061700;28;20548;-69
2023/11/30 03:43:08;;;;;;;3.40;0.52;;;;;;;4.52;86.35;99782.34;5057773;28;20112;-68
2023/11/30 03:45:34;;;;;;;1.40;0.40;;;;;;;4.43;87.75;99788.25;5058212;28;20059;-68
2023/11/30 03:48:00;;;;;;;2.28;0.75;;;;;;;4.33;89.59;99788.16;5073275;28;20028;-68
2023/11/30 03:50:25;;;;;;;2.10;0.50;;;;;;;4.31;90.65;99780.53;5051062;28;20384;-69
2023/11/30 03:52:51;;;;;;;0.98;0.47;;;;;;;4.23;91.41;99771.78;5071194;28;20028;-69
2023/11/30 03:55:18;;;;;;;1.73;0.80;;;;;;;4.19;91.41;99763.47;5071184;28;20044;-68
2023/11/30 03:57:44;;;;;;;1.63;0.63;;;;;;;4.24;91.07;99763.94;5060385;28;20020;-68
2023/11/30 04:00:13;;;;;;;2.90;0.65;;;;;;;4.25;90.40;99769.91;5064889;28;20370;-68
2023/11/30 04:02:39;;;;;;;1.98;0.60;;;;;;;4.23;90.27;99758.91;5051377;28;20040;-68
2023/11/30 04:05:05;;;;;;;2.05;0.55;;;;;;;4.16;91.93;99766.28;5059374;28;20024;-68
2023/11/30 04:07:34;;;;;;;1.23;0.32;;;;;;;4.13;93.01;99774.25;5066723;28;20060;-68
2023/11/30 04:09:59;;;;;;;1.48;0.75;;;;;;;4.15;94.19;99774.16;5058491;28;20025;-68
2023/11/30 04:12:25;;;;;;;6.95;0.70;;;;;;;4.16;94.18;99765.47;5059492;28;20055;-68
2023/11/30 04:14:51;;;;;;;1.13;0.43;;;;;;;4.11;94.55;99762.44;5058932;28;20045;-69
2023/11/30 04:17:16;;;;;;;1.50;0.75;;;;;;;4.05;95.73;99752.59;5057715;28;20025;-69
2023/11/30 04:19:42;;;;;;;2.90;0.60;;;;;;;4.02;96.76;99752.84;5071400;28;20027;-68
2023/11/30 04:22:08;;;;;;;1.98;1.15;;;;;;;3.98;97.75;99747.09;5056645;28;20070;-69
2023/11/30 04:24:34;;;;;;;1.52;0.80;;;;;;;3.86;99.52;99748.03;5061524;28;20500;-69
2023/11/30 04:27:01;;;;;;;1.77;0.70;;;;;;;3.75;100.00;99741.16;5065665;28;20090;-67
2023/11/30 04:29:26;;;;;;;1.60;0.63;;;;;;;3.71;100.00;99744.09;5067829;28;20034;-68
2023/11/30 04:31:52;;;;;;;1.23;0.63;;;;;;;3.73;100.00;99752.53;5066823;28;20037;-68
2023/11/30 04:34:18;;;;;;;1.90;0.80;;;;;;;3.70;100.00;99747.63;5064038;28;20131;-68
2023/11/30 04:36:44;;;;;;;2.42;0.73;;;;;;;3.72;100.00;99750.91;5069744;28;20075;-68
2023/11/30 04:39:11;;;;;;;2.15;0.63;;;;;;;3.70;100.00;99747.63;5066339;28;20143;-67
2023/11/30 04:41:37;;;;;;;1.23;0.65;;;;;;;3.67;100.00;99744.34;5068198;28;20032;-67
2023/11/30 04:44:03;;;;;;;1.55;0.68;;;;;;;3.64;100.00;99742.00;5067219;28;20031;-67
2023/11/30 04:46:29;;;;;;;2.92;0.60;;;;;;;3.64;100.00;99751.47;5048594;28;20128;-68
2023/11/30 04:48:57;;;;;;;2.35;0.95;;;;;;;3.60;100.00;99750.06;5065259;28;20460;-68
2023/11/30 04:51:22;;;;;;;3.67;0.90;;;;;;;3.53;100.00;99747.16;5068411;28;20040;-68
2023/11/30 04:53:47;;;;;;;2.30;0.50;;;;;;;3.51;100.00;99737.88;5042644;28;20432;-67
2023/11/30 04:56:13;;;;;;;3.03;0.95;;;;;;;3.51;100.00;99743.88;5056180;28;20025;-67
2023/11/30 04:58:38;;;;;;;3.60;0.70;;;;;;;3.49;100.00;99732.84;5059619;28;20039;-67
2023/11/30 05:01:04;;;;;;;1.55;0.85;;;;;;;3.46;100.00;99734.84;5069287;28;20033;-67
2023/11/30 05:03:30;;;;;;;2.40;0.80;;;;;;;3.44;100.00;99732.38;5060974;28;20488;-66
2023/11/30 05:05:56;;;;;;;3.45;1.05;;;;;;;3.49;100.00;99725.13;5064775;28;20033;-67
2023/11/30 05:08:21;;;;;;;3.22;1.40;;;;;;;3.57;100.00;99729.69;5060305;28;20148;-67
2023/11/30 05:10:46;;;;;;;4.28;0.93;;;;;;;3.66;100.00;99724.66;5066114;28;20028;-65
2023/11/30 05:13:12;;;;;;;3.28;1.35;;;;;;;3.67;100.00;99720.34;5068635;28;20057;-66
2023/11/30 05:15:39;;;;;;;3.42;0.85;;;;;;;3.65;100.00;99725.59;5059868;28;20093;-66
2023/11/30 05:18:05;;;;;;;3.28;0.77;;;;;;;3.63;100.00;99732.63;5062160;28;20120;-66
2023/11/30 05:20:31;;;;;;;1.85;0.90;;;;;;;3.63;100.00;99740.34;5061463;28;20024;-66
2023/11/30 05:22:56;;;;;;;3.80;1.23;;;;;;;3.66;100.00;99744.47;5069547;28;20032;-65
2023/11/30 05:25:22;;;;;;;1.80;0.68;;;;;;;3.61;100.00;99757.69;5066298;28;20028;-66
2023/11/30 05:27:47;;;;;;;4.45;1.10;;;;;;;3.57;100.00;99769.16;5064631;28;20050;-66
2023/11/30 05:30:13;;;;;;;3.20;1.08;;;;;;;3.54;100.00;99768.56;5066885;28;20032;-66
2023/11/30 05:32:38;;;;;;;3.30;1.10;;;;;;;3.48;100.00;99764.69;5068264;28;20107;-64
2023/11/30 05:35:05;;;;;;;2.30;0.93;;;;;;;3.37;100.00;99767.25;5060299;28;20036;-65
2023/11/30 05:37:31;;;;;;;3.47;1.17;;;;;;;3.37;100.00;99766.44;5060702;28;20036;-64
2023/11/30 05:39:56;;;;;;;6.35;1.65;;;;;;;3.40;100.00;99766.22;5061285;28;20076;-64
2023/11/30 05:42:22;;;;;;;4.30;1.38;;;;;;;3.42;100.00;99765.16;5061113;28;20043;-64
2023/11/30 05:44:47;;;;;;;3.78;0.98;;;;;;;3.42;100.00;99765.16;5063412;28;20090;-64
2023/11/30 05:47:14;;;;;;;2.30;1.15;;;;;;;3.40;100.00;99772.19;5060268;28;20469;-64
2023/11/30 05:49:39;;;;;;;4.00;1.35;;;;;;;3.38;100.00;99773.22;5061557;28;20025;-64
2023/11/30 05:52:05;;;;;;;3.58;1.38;;;;;;;3.38;100.00;99779.19;5062636;28;20028;-64
2023/11/30 05:54:30;;;;;;;3.10;1.00;;;;;;;3.42;100.00;99790.09;5060389;28;20072;-64
2023/11/30 05:56:56;;;;;;;2.60;1.23;;;;;;;3.42;100.00;99798.63;5060325;28;20103;-64
2023/11/30 05:59:21;;;;;;;1.83;0.85;;;;;;;3.47;100.00;99793.16;5062420;28;20122;-64
2023/11/30 06:01:47;;;;;;;2.25;1.15;;;;;;;3.50;100.00;99796.31;5065183;28;20060;-65
2023/11/30 06:04:12;;;;;;;3.15;1.70;;;;;;;3.53;100.00;99800.41;5062363;28;20399;-64
2023/11/30 06:06:38;;;;;;;2.80;1.02;;;;;;;3.50;100.00;99782.63;5064071;28;20024;-64
2023/11/30 06:09:04;;;;;;;1.48;0.68;;;;;;;3.50;100.00;99780.84;5053904;28;20029;-64
2023/11/30 06:11:30;;;;;;;2.28;1.13;;;;;;;3.48;100.00;99782.72;5063489;28;20111;-64
2023/11/30 06:13:55;;;;;;;2.15;1.15;;;;;;;3.44;100.00;99789.03;5059452;28;20055;-65
2023/11/30 06:16:21;;;;;;;3.33;1.38;;;;;;;3.40;100.00;99782.47;5061531;28;20119;-65
2023/11/30 06:18:46;;;;;;;3.78;1.77;;;;;;;3.37;100.00;99782.72;5057144;28;20039;-64
2023/11/30 06:21:12;;;;;;;4.88;1.40;;;;;;;3.40;100.00;99784.22;5064462;28;20048;-64
2023/11/30 06:23:37;;;;;;;2.72;1.10;;;;;;;3.38;100.00;99775.81;5061749;28;20028;-65
2023/11/30 06:26:03;;;;;;;1.50;0.75;;;;;;;3.37;100.00;99780.13;5063334;28;20090;-65
2023/11/30 06:28:28;;;;;;;2.58;0.90;;;;;;;3.42;100.00;99775.47;5061501;28;20041;-65
2023/11/30 06:30:54;;;;;;;3.53;1.35;;;;;;;3.49;100.00;99768.91;5061017;28;20028;-65
2023/11/30 06:33:20;;;;;;;2.55;0.90;;;;;;;3.58;100.00;99781.09;5056682;28;20436;-65
2023/11/30 06:35:45;;;;;;;2.90;1.30;;;;;;;3.65;100.00;99787.44;5066657;28;20386;-65
2023/11/30 06:38:11;;;;;;;2.20;0.65;;;;;;;3.68;100.00;99778.66;5066638;28;20119;-65
2023/11/30 06:40:38;;;;;;;3.28;1.40;;;;;;;3.60;100.00;99793.88;5063892;28;20101;-65
2023/11/30 06:43:03;;;;;;;3.38;1.35;;;;;;;3.57;100.00;99810.38;5062149;28;20102;-65
2023/11/30 06:45:29;;;;;;;1.50;0.68;;;;;;;3.56;100.00;99819.03;5065483;28;20493;-65
2023/11/30 06:47:54;;;;;;;4.47;1.10;;;;;;;3.52;100.00;99812.47;5063928;28;20052;-65
2023/11/30 06:50:20;;;;;;;1.30;0.80;;;;;;;3.53;100.00;99815.88;5054385;28;20056;-65
2023/11/30 06:52:45;;;;;;;2.60;0.93;;;;;;;3.55;100.00;99812.25;5051538;28;20027;-65
2023/11/30 06:55:11;;;;;;;8.98;2.95;;;;;;;3.59;100.00;99798.19;5066899;28;20028;-67
2023/11/30 06:57:38;;;;;;;2.83;1.40;;;;;;;3.58;100.00;99795.75;5062518;28;20036;-65
2023/11/30 07:00:10;;;;;;;2.50;1.10;;;;;;;3.56;100.00;99795.84;5062953;28;20090;-67
2023/11/30 07:02:36;;;;;;;4.72;1.23;;;;;;;3.56;100.00;99795.03;5061809;28;20111;-65
2023/11/30 07:05:05;;;;;;;4.53;1.17;;;;;;;3.56;100.00;99790.69;5059210;28;20116;-66
2023/11/30 07:07:33;;;;;;;1.67;0.70;;;;;;;3.56;100.00;99788.13;5055894;28;20093;-65
2023/11/30 07:09:59;;;;;;;3.35;0.80;;;;;;;3.54;100.00;99794.31;5043707;28;20033;-64
2023/11/30 07:12:24;;;;;;;4.90;1.35;;;;;;;3.51;100.00;99791.97;5042456;28;20493;-65
2023/11/30 07:14:50;;;;;;;3.58;1.30;;;;;;;3.56;100.00;99798.44;5061893;28;20104;-64
2023/11/30 07:17:15;;;;;;;3.95;1.13;;;;;;;3.58;100.00;99785.44;5066225;28;20036;-64
2023/11/30 07:19:41;;;;;;;3.13;1.25;;;;;;;3.62;100.00;99787.66;5057196;28;20485;-64
2023/11/30 07:22:07;;;;;;;3.20;1.25;;;;;;;3.63;100.00;99784.16;5067848;28;20021;-65
2023/11/30 07:24:32;;;;;;;3.03;1.15;;;;;;;3.64;100.00;99779.81;5072237;28;20041;-65
2023/11/30 07:26:59;;;;;;;4.70;0.65;;;;;;;3.60;100.00;99781.81;5073221;28;20032;-64
2023/11/30 07:29:25;;;;;;;1.60;0.70;;;;;;;3.59;100.00;99784.50;5072360;28;20111;-65
2023/11/30 07:31:51;;;;;;;2.22;0.77;;;;;;;3.57;100.00;99789.75;5070936;28;20116;-64
2023/11/30 07:34:16;;;;;;;1.67;0.60;;;;;;;3.64;100.00;99780.63;5071493;28;20036;-66
2023/11/30 07:36:42;;;;;;;2.08;0.90;;;;;;;3.69;100.00;99771.75;5053690;28;20028;-65
2023/11/30 07:39:08;;;;;;;2.70;0.70;;;;;;;3.71;100.00;99775.03;5070142;28;20032;-64
2023/11/30 07:41:34;;;;;;;2.60;1.15;;;;;;;3.71;100.00;99767.28;5065388;28;20060;-65
2023/11/30 07:43:59;;;;;;;1.77;0.80;;;;;;;3.67;100.00;99770.09;5071264;28;20021;-64
2023/11/30 07:46:25;;;;;;;1.95;0.60;;;;;;;3.71;100.00;99769.88;5063950;28;20047;-64
2023/11/30 07:48:51;;;;;;;4.57;1.30;;;;;;;3.73;100.00;99762.84;5072696;28;20536;-64
2023/11/30 07:51:16;;;;;;;3.38;0.93;;;;;;;3.75;100.00;99755.81;5068524;28;20032;-64
2023/11/30 07:53:42;;;;;;;2.70;0.95;;;;;;;3.72;100.00;99741.41;5070401;28;20028;-65
2023/11/30 07:56:08;;;;;;;3.55;1.05;;;;;;;3.73;100.00;99732.75;5052696;28;20030;-64
2023/11/30 07:58:33;;;;;;;1.42;0.55;;;;;;;3.67;100.00;99735.78;5070819;28;20056;-65
2023/11/30 08:00:59;;;;;;;3.55;0.73;;;;;;;3.62;100.00;99735.31;5070261;28;20087;-64
2023/11/30 08:03:25;;;;;;;2.03;0.70;;;;;;;3.63;100.00;99730.06;5058236;28;20032;-63
2023/11/30 08:05:50;;;;;;;1.88;0.70;;;;;;;3.64;100.00;99738.59;5063604;28;20032;-64
2023/11/30 08:08:17;;;;;;;2.55;0.80;;;;;;;3.60;100.00;99743.16;5065634;28;20551;-64
2023/11/30 08:10:43;;;;;;;1.55;0.75;;;;;;;3.66;100.00;99753.00;5069758;28;20111;-65
2023/11/30 08:13:10;;;;;;;3.47;0.80;;;;;;;3.67;100.00;99762.38;5066728;28;20210;-64
2023/11/30 08:15:36;;;;;;;2.60;0.93;;;;;;;3.71;100.00;99767.28;5068017;28;20486;-64
2023/11/30 08:18:01;;;;;;;1.90;0.50;;;;;;;3.71;100.00;99754.41;5066137;28;20032;-64
2023/11/30 08:20:27;;;;;;;6.38;1.02;;;;;;;3.68;100.00;99750.31;5048869;28;20036;-64
2023/11/30 08:22:53;;;;;;;4.25;0.90;;;;;;;3.65;100.00;99743.63;5071268;28;20059;-65
2023/11/30 08:25:19;;;;;;;2.53;0.80;;;;;;;3.67;100.00;99746.91;5069278;28;20036;-64
2023/11/30 08:27:44;;;;;;;2.15;0.95;;;;;;;3.70;100.00;99742.47;5066426;28;20031;-64
2023/11/30 08:30:10;;;;;;;2.22;0.88;;;;;;;3.72;100.00;99731.09;5068455;28;20043;-64
2023/11/30 08:32:37;;;;;;;2.55;0.65;;;;;;;3.75;100.00;99732.63;5066576;28;20081;-64
2023/11/30 08:35:03;;;;;;;1.90;0.60;;;;;;;3.78;100.00;99729.81;5066148;28;20055;-63
2023/11/30 08:37:29;;;;;;;2.65;0.80;;;;;;;3.80;100.00;99733.06;5065280;28;20134;-64
2023/11/30 08:39:54;;;;;;;2.83;0.75;;;;;;;3.74;100.00;99734.38;5064207;28;20040;-64
2023/11/30 08:42:21;;;;;;;3.13;0.57;;;;;;;3.71;100.00;99744.09;5066158;28;20052;-64
2023/11/30 08:44:47;;;;;;;1.45;0.85;;;;;;;3.70;100.00;99737.31;5065369;28;20120;-64
2023/11/30 08:47:13;;;;;;;3.15;0.90;;;;;;;3.73;100.00;99742.22;5067583;28;20046;-64
2023/11/30 08:49:38;;;;;;;1.52;0.60;;;;;;;3.74;100.00;99747.25;5060900;28;20025;-64
2023/11/30 08:52:04;;;;;;;2.67;0.80;;;;;;;3.80;100.00;99739.03;5068462;28;20044;-64
2023/11/30 08:54:30;;;;;;;4.53;1.50;;;;;;;3.83;100.00;99737.97;5065662;28;20449;-63
2023/11/30 08:56:55;;;;;;;3.00;0.75;;;;;;;3.85;100.00;99743.84;5066757;28;20094;-63
2023/11/30 08:59:21;;;;;;;2.63;0.70;;;;;;;3.83;100.00;99748.28;5065727;28;20067;-63
2023/11/30 09:01:48;;;;;;;2.15;1.10;;;;;;;3.82;100.00;99754.38;5060178;28;20033;-63
2023/11/30 09:04:13;;;;;;;4.35;0.73;;;;;;;3.83;100.00;99751.69;5064660;28;21719;-63
2023/11/30 09:06:39;;;;;;;1.30;0.40;;;;;;;3.88;100.00;99747.00;5064060;28;20716;-63
2023/11/30 09:09:04;;;;;;;0.95;0.30;;;;;;;3.93;100.00;99744.06;5047446;28;20420;-63
2023/11/30 09:11:30;;;;;;;2.25;0.77;;;;;;;3.90;100.00;99744.28;5044884;28;20560;-63
2023/11/30 09:13:56;;;;;;;2.38;0.57;;;;;;;3.91;100.00;99743.34;5063235;28;20037;-63
2023/11/30 09:16:21;;;;;;;2.45;0.82;;;;;;;3.93;100.00;99756.94;5065147;28;20038;-63
2023/11/30 09:18:47;;;;;;;3.83;0.68;;;;;;;3.92;100.00;99742.41;5065939;28;20436;-64
2023/11/30 09:21:12;;;;;;;3.45;0.88;;;;;;;3.98;100.00;99744.53;5066570;28;20037;-63
2023/11/30 09:23:38;;;;;;;2.95;1.13;;;;;;;3.94;100.00;99735.38;5064520;28;20021;-62
2023/11/30 09:26:07;;;;;;;1.10;0.50;;;;;;;3.89;100.00;99728.00;5066139;28;20151;-63
2023/11/30 09:28:33;;;;;;;2.45;0.60;;;;;;;3.90;100.00;99728.84;5061307;28;20036;-63
2023/11/30 09:31:02;;;;;;;2.95;0.95;;;;;;;3.89;100.00;99729.78;5058585;28;20084;-63
2023/11/30 09:33:29;;;;;;;6.55;2.15;;;;;;;3.93;100.00;99731.16;5062499;28;20067;-63
2023/11/30 09:35:56;;;;;;;1.83;0.65;;;;;;;3.95;100.00;99727.53;5066944;28;20384;-63
2023/11/30 09:38:21;;;;;;;3.80;1.13;;;;;;;3.94;100.00;99733.63;5067866;28;20166;-63
2023/11/30 09:40:47;;;;;;;7.13;1.00;;;;;;;3.97;100.00;99740.31;5066382;28;20124;-62
2023/11/30 09:43:16;;;;;;;3.72;0.70;;;;;;;3.99;100.00;99717.81;5065395;28;20024;-62
2023/11/30 09:45:45;;;;;;;1.40;0.40;;;;;;;4.02;100.00;99712.41;5065545;28;20087;-62
2023/11/30 09:48:11;;;;;;;4.63;0.95;;;;;;;4.01;100.00;99708.19;5063925;28;20123;-62
2023/11/30 09:50:36;;;;;;;4.25;1.27;;;;;;;4.02;100.00;99717.56;5065875;28;20035;-63
2023/11/30 09:53:02;;;;;;;3.40;0.80;;;;;;;4.07;100.00;99704.31;5066897;28;20028;-62
2023/11/30 09:55:28;;;;;;;5.60;0.98;;;;;;;4.06;100.00;99695.75;5066516;28;20465;-63
2023/11/30 09:57:54;;;;;;;2.90;0.73;;;;;;;4.08;100.00;99700.81;5066701;28;20166;-63
2023/11/30 10:00:20;;;;;;;1.65;0.68;;;;;;;4.07;100.00;99694.81;5067964;28;20057;-63
2023/11/30 10:02:55;;;;;;;6.15;1.00;;;;;;;4.08;100.00;99690.50;5066296;28;20039;-63
2023/11/30 10:05:21;;;;;;;1.33;0.60;;;;;;;4.14;100.00;99695.97;5061185;28;20446;-63
2023/11/30 10:07:46;;;;;;;2.33;0.80;;;;;;;4.16;100.00;99694.09;5065426;28;20103;-62
2023/11/30 10:10:14;;;;;;;3.67;0.95;;;;;;;4.13;100.00;99690.94;5064827;28;20032;-63
2023/11/30 10:12:40;;;;;;;1.52;0.70;;;;;;;4.01;100.00;99674.69;5065878;28;20086;-64
2023/11/30 10:15:06;;;;;;;3.03;0.77;;;;;;;3.98;100.00;99674.94;5066740;28;20036;-63
2023/11/30 10:17:31;;;;;;;1.15;0.47;;;;;;;3.98;100.00;99662.84;5063761;28;20032;-63
2023/11/30 10:19:57;;;;;;;6.57;1.95;;;;;;;4.05;100.00;99655.47;5067368;28;20031;-63
2023/11/30 10:22:22;;;;;;;6.47;2.03;;;;;;;4.06;100.00;99645.97;5066917;28;20032;-64
2023/11/30 10:24:51;;;;;;;2.63;0.50;;;;;;;4.07;100.00;99642.44;5064984;28;20028;-63
2023/11/30 10:27:21;;;;;;;2.70;0.90;;;;;;;4.13;100.00;99637.63;5067815;28;20036;-63
2023/11/30 10:29:48;;;;;;;3.05;0.57;;;;;;;4.19;100.00;99621.66;5065312;28;20051;-63
2023/11/30 10:32:15;;;;;;;3.10;0.73;;;;;;;4.21;100.00;99622.34;5067528;28;20460;-63
2023/11/30 10:34:45;;;;;;;0.82;0.52;;;;;;;4.29;100.00;99611.41;5064421;28;20040;-64
2023/11/30 10:37:13;;;;;;;4.13;0.80;;;;;;;4.29;100.00;99595.91;5059326;28;20043;-63
2023/11/30 10:39:43;;;;;;;3.95;1.10;;;;;;;4.29;100.00;99586.41;5058254;28;20035;-64
2023/11/30 10:42:12;;;;;;;1.17;0.47;;;;;;;4.28;100.00;99574.47;5063821;28;20395;-64
2023/11/30 10:44:40;;;;;;;1.55;0.40;;;;;;;4.27;100.00;99559.94;5058085;28;20020;-64
2023/11/30 10:47:09;;;;;;;1.63;0.45;;;;;;;4.25;100.00;99559.25;5066461;28;20028;-64
2023/11/30 10:49:36;;;;;;;1.33;0.40;;;;;;;4.24;100.00;99567.97;5040946;28;20037;-64
2023/11/30 10:52:03;;;;;;;0.82;0.20;;;;;;;4.26;100.00;99578.94;5063111;28;20394;-64
2023/11/30 10:54:39;;;;;;;1.73;0.40;;;;;;;4.31;100.00;99576.81;5063927;28;20382;-67
2023/11/30 10:57:06;;;;;;;;;;;;;;;4.39;100.00;99562.47;5063900;28;20068;-64
2023/11/30 10:59:32;;;;;;;0.93;0.20;;;;;;;4.40;100.00;99546.03;5057598;28;19917;-63
2023/11/30 11:01:59;;;;;;;2.25;0.30;;;;;;;4.38;100.00;99548.75;5064595;28;20108;-63
2023/11/30 11:04:27;;;;;;;2.40;0.47;;;;;;;4.38;100.00;99538.44;5041075;28;20335;-66
2023/11/30 11:07:13;;;;;;;1.48;0.30;;;;;;;4.43;100.00;99535.47;5061301;28;20059;-65
2023/11/30 11:09:43;;;;;;;1.92;0.30;;;;;;;4.44;100.00;99537.09;5055689;28;20550;-65
2023/11/30 11:12:19;;;;;;;3.13;0.60;;;;;;;4.44;100.00;99539.69;5059227;28;20339;-65
2023/11/30 11:14:45;;;;;;;0.50;0.20;;;;;;;4.43;100.00;99545.78;5056985;28;20438;-65
2023/11/30 11:17:12;;;;;;;0.90;0.30;;;;;;;4.46;100.00;99535.22;5057388;28;20059;-66
2023/11/30 11:19:42;;;;;;;3.05;0.30;;;;;;;4.54;100.00;99517.34;5057816;28;20033;-66
2023/11/30 11:22:21;;;;;;;1.00;0.38;;;;;;;4.58;100.00;99508.41;5056756;28;20811;-66
2023/11/30 11:24:48;;;;;;;1.90;0.40;;;;;;;4.62;100.00;99517.53;5059260;28;20017;-66
2023/11/30 11:27:27;;;;;;;2.92;0.70;;;;;;;4.67;100.00;99510.22;5057100;28;20033;-67
2023/11/30 11:29:52;;;;;;;2.88;1.08;;;;;;;4.72;100.00;99500.31;5056770;28;20425;-64
2023/11/30 11:32:18;;;;;;;2.05;1.08;;;;;;;4.79;100.00;99495.41;5053264;28;20040;-66